sensor_id;sensor_type;location;lat;lon;timestamp;pressure;altitude;pressure_sealevel;temperature;humidity
71774;BME280;59607;52.130;5.430;2023-02-17T00:01:52;102001.34;;;9.88;100.00
71774;BME280;59607;52.130;5.430;2023-02-17T00:04:18;101991.69;;;9.89;100.00
71774;BME280;59607;52.130;5.430;2023-02-17T00:06:45;101990.84;;;9.88;100.00
71774;BME280;59607;52.130;5.430;2023-02-17T00:09:16;101996.94;;;9.89;100.00
71774;BME280;59607;52.130;5.430;2023-02-17T00:11:43;101991.56;;;9.91;100.00
71774;BME280;59607;52.130;5.430;2023-02-17T00:14:13;101987.13;;;9.91;100.00
71774;BME280;59607;52.130;5.430;2023-02-17T00:16:40;101984.50;;;9.91;100.00
71774;BME280;59607;52.130;5.430;2023-02-17T00:19:07;101991.44;;;9.92;100.00
71774;BME280;59607;52.130;5.430;2023-02-17T00:21:57;101983.56;;;9.92;100.00
71774;BME280;59607;52.130;5.430;2023-02-17T00:24:30;101981.75;;;9.93;100.00
71774;BME280;59607;52.130;5.430;2023-02-17T00:27:02;101978.31;;;9.92;100.00
71774;BME280;59607;52.130;5.430;2023-02-17T00:29:31;101976.50;;;9.93;100.00
71774;BME280;59607;52.130;5.430;2023-02-17T00:31:58;101979.97;;;9.93;100.00
71774;BME280;59607;52.130;5.430;2023-02-17T00:34:26;101980.81;;;9.94;100.00
71774;BME280;59607;52.130;5.430;2023-02-17T00:36:56;101977.34;;;9.93;100.00
71774;BME280;59607;52.130;5.430;2023-02-17T00:39:26;101974.72;;;9.93;100.00
71774;BME280;59607;52.130;5.430;2023-02-17T00:41:56;101976.38;;;9.94;100.00
71774;BME280;59607;52.130;5.430;2023-02-17T00:44:25;101986.88;;;9.94;100.00
71774;BME280;59607;52.130;5.430;2023-02-17T00:46:53;101974.72;;;9.93;100.00
71774;BME280;59607;52.130;5.430;2023-02-17T00:49:24;101968.66;;;9.93;100.00
71774;BME280;59607;52.130;5.430;2023-02-17T00:52:00;101965.22;;;9.92;100.00
71774;BME280;59607;52.130;5.430;2023-02-17T00:54:33;101961.75;;;9.92;100.00
71774;BME280;59607;52.130;5.430;2023-02-17T00:57:02;101969.63;;;9.92;100.00
71774;BME280;59607;52.130;5.430;2023-02-17T00:59:29;101960.09;;;9.91;100.00
71774;BME280;59607;52.130;5.430;2023-02-17T01:01:55;101955.94;;;9.88;100.00
71774;BME280;59607;52.130;5.430;2023-02-17T01:04:35;101963.94;;;9.86;100.00
71774;BME280;59607;52.130;5.430;2023-02-17T01:07:08;101963.13;;;9.86;100.00
71774;BME280;59607;52.130;5.430;2023-02-17T01:09:34;101966.81;;;9.83;100.00
71774;BME280;59607;52.130;5.430;2023-02-17T01:12:01;101956.47;;;9.82;100.00
71774;BME280;59607;52.130;5.430;2023-02-17T01:14:28;101957.44;;;9.81;100.00
71774;BME280;59607;52.130;5.430;2023-02-17T01:16:56;101967.22;;;9.79;100.00
71774;BME280;59607;52.130;5.430;2023-02-17T01:19:24;101968.03;;;9.79;100.00
71774;BME280;59607;52.130;5.430;2023-02-17T01:21:57;101973.28;;;9.79;100.00
71774;BME280;59607;52.130;5.430;2023-02-17T01:24:24;101972.31;;;9.80;100.00
71774;BME280;59607;52.130;5.430;2023-02-17T01:26:53;101972.56;;;9.77;100.00
71774;BME280;59607;52.130;5.430;2023-02-17T01:29:20;101980.56;;;9.75;100.00
71774;BME280;59607;52.130;5.430;2023-02-17T01:31:47;101970.47;;;9.71;100.00
71774;BME280;59607;52.130;5.430;2023-02-17T01:34:13;101976.56;;;9.71;100.00
71774;BME280;59607;52.130;5.430;2023-02-17T01:36:47;101964.66;;;9.67;100.00
71774;BME280;59607;52.130;5.430;2023-02-17T01:39:16;101980.50;;;9.66;100.00
71774;BME280;59607;52.130;5.430;2023-02-17T01:41:48;101972.66;;;9.66;100.00
71774;BME280;59607;52.130;5.430;2023-02-17T01:44:18;101973.88;;;9.61;100.00
71774;BME280;59607;52.130;5.430;2023-02-17T01:46:51;101982.78;;;9.59;100.00
71774;BME280;59607;52.130;5.430;2023-02-17T01:49:38;101977.13;;;9.54;100.00
71774;BME280;59607;52.130;5.430;2023-02-17T01:52:18;101969.50;;;9.50;100.00
71774;BME280;59607;52.130;5.430;2023-02-17T01:54:52;101971.69;;;9.45;100.00
71774;BME280;59607;52.130;5.430;2023-02-17T01:57:22;101970.97;;;9.43;100.00
71774;BME280;59607;52.130;5.430;2023-02-17T01:59:53;101970.16;;;9.43;100.00
71774;BME280;59607;52.130;5.430;2023-02-17T02:02:24;101979.94;;;9.41;100.00
71774;BME280;59607;52.130;5.430;2023-02-17T02:04:53;101965.28;;;9.38;100.00
71774;BME280;59607;52.130;5.430;2023-02-17T02:07:36;101958.28;;;9.38;100.00
71774;BME280;59607;52.130;5.430;2023-02-17T02:10:04;101968.03;;;9.36;100.00
71774;BME280;59607;52.130;5.430;2023-02-17T02:12:35;101950.69;;;9.35;100.00
71774;BME280;59607;52.130;5.430;2023-02-17T02:15:10;101945.44;;;9.35;100.00
71774;BME280;59607;52.130;5.430;2023-02-17T02:26:52;101919.66;;;9.31;100.00
71774;BME280;59607;52.130;5.430;2023-02-17T02:35:27;101909.97;;;9.31;100.00
71774;BME280;59607;52.130;5.430;2023-02-17T02:38:16;101917.03;;;9.31;100.00
71774;BME280;59607;52.130;5.430;2023-02-17T02:40:53;101908.19;;;9.32;100.00
71774;BME280;59607;52.130;5.430;2023-02-17T02:43:23;101903.94;;;9.31;100.00
71774;BME280;59607;52.130;5.430;2023-02-17T02:45:49;101901.31;;;9.31;100.00
71774;BME280;59607;52.130;5.430;2023-02-17T02:48:27;101899.75;;;9.28;100.00
71774;BME280;59607;52.130;5.430;2023-02-17T03:03:08;101895.88;;;9.22;100.00
71774;BME280;59607;52.130;5.430;2023-02-17T03:08:52;101886.34;;;9.21;100.00
71774;BME280;59607;52.130;5.430;2023-02-17T03:11:24;101887.19;;;9.22;100.00
71774;BME280;59607;52.130;5.430;2023-02-17T03:14:11;101895.88;;;9.22;100.00
71774;BME280;59607;52.130;5.430;2023-02-17T03:16:41;101902.63;;;9.25;100.00
71774;BME280;59607;52.130;5.430;2023-02-17T03:19:09;101895.63;;;9.25;100.00
71774;BME280;59607;52.130;5.430;2023-02-17T03:22:15;101896.47;;;9.26;100.00
71774;BME280;59607;52.130;5.430;2023-02-17T03:24:42;101876.34;;;9.26;100.00
71774;BME280;59607;52.130;5.430;2023-02-17T03:27:12;101872.78;;;9.28;100.00
71774;BME280;59607;52.130;5.430;2023-02-17T03:29:39;101865.72;;;9.28;100.00
71774;BME280;59607;52.130;5.430;2023-02-17T03:32:22;101857.88;;;9.28;100.00
71774;BME280;59607;52.130;5.430;2023-02-17T03:34:51;101866.56;;;9.29;100.00
71774;BME280;59607;52.130;5.430;2023-02-17T03:37:18;101850.03;;;9.28;100.00
71774;BME280;59607;52.130;5.430;2023-02-17T03:39:44;101843.97;;;9.28;100.00
71774;BME280;59607;52.130;5.430;2023-02-17T03:42:17;101844.66;;;9.30;100.00
71774;BME280;59607;52.130;5.430;2023-02-17T03:44:43;101846.34;;;9.31;100.00
71774;BME280;59607;52.130;5.430;2023-02-17T03:47:20;101830.50;;;9.32;100.00
71774;BME280;59607;52.130;5.430;2023-02-17T03:49:46;101845.22;;;9.33;100.00
71774;BME280;59607;52.130;5.430;2023-02-17T03:52:20;101851.19;;;9.35;100.00
71774;BME280;59607;52.130;5.430;2023-02-17T03:54:47;101837.13;;;9.36;100.00
71774;BME280;59607;52.130;5.430;2023-02-17T03:57:16;101832.72;;;9.37;100.00
71774;BME280;59607;52.130;5.430;2023-02-17T03:59:45;101833.44;;;9.39;100.00
71774;BME280;59607;52.130;5.430;2023-02-17T04:02:11;101838.41;;;9.42;100.00
71774;BME280;59607;52.130;5.430;2023-02-17T04:04:38;101835.66;;;9.44;100.00
71774;BME280;59607;52.130;5.430;2023-02-17T04:07:04;101811.97;;;9.45;100.00
71774;BME280;59607;52.130;5.430;2023-02-17T04:09:30;101812.75;;;9.46;100.00
71774;BME280;59607;52.130;5.430;2023-02-17T04:11:57;101830.16;;;9.47;100.00
71774;BME280;59607;52.130;5.430;2023-02-17T04:14:23;101836.06;;;9.49;100.00
71774;BME280;59607;52.130;5.430;2023-02-17T04:17:17;101835.13;;;9.50;100.00
71774;BME280;59607;52.130;5.430;2023-02-17T04:19:43;101836.66;;;9.53;100.00
71774;BME280;59607;52.130;5.430;2023-02-17T04:22:10;101829.63;;;9.53;100.00
71774;BME280;59607;52.130;5.430;2023-02-17T04:24:41;101833.75;;;9.56;100.00
71774;BME280;59607;52.130;5.430;2023-02-17T04:27:09;101828.41;;;9.57;100.00
71774;BME280;59607;52.130;5.430;2023-02-17T04:29:36;101831.00;;;9.57;100.00
71774;BME280;59607;52.130;5.430;2023-02-17T04:32:05;101831.84;;;9.58;100.00
71774;BME280;59607;52.130;5.430;2023-02-17T04:34:32;101836.13;;;9.59;100.00
71774;BME280;59607;52.130;5.430;2023-02-17T04:37:02;101831.84;;;9.58;100.00
71774;BME280;59607;52.130;5.430;2023-02-17T04:39:31;101814.34;;;9.58;100.00
71774;BME280;59607;52.130;5.430;2023-02-17T04:41:59;101814.34;;;9.58;100.00
71774;BME280;59607;52.130;5.430;2023-02-17T04:44:42;101794.22;;;9.59;100.00
71774;BME280;59607;52.130;5.430;2023-02-17T04:47:17;101811.59;;;9.60;100.00
71774;BME280;59607;52.130;5.430;2023-02-17T04:49:44;101814.22;;;9.60;100.00
71774;BME280;59607;52.130;5.430;2023-02-17T04:52:10;101822.09;;;9.60;100.00
71774;BME280;59607;52.130;5.430;2023-02-17T04:54:41;101802.91;;;9.59;100.00
71774;BME280;59607;52.130;5.430;2023-02-17T04:57:07;101800.28;;;9.59;100.00
71774;BME280;59607;52.130;5.430;2023-02-17T04:59:40;101799.31;;;9.60;100.00
71774;BME280;59607;52.130;5.430;2023-02-17T05:02:06;101806.38;;;9.60;100.00
71774;BME280;59607;52.130;5.430;2023-02-17T05:04:33;101806.38;;;9.60;100.00
71774;BME280;59607;52.130;5.430;2023-02-17T05:07:00;101821.25;;;9.59;100.00
71774;BME280;59607;52.130;5.430;2023-02-17T05:09:30;101824.69;;;9.60;100.00
71774;BME280;59607;52.130;5.430;2023-02-17T05:11:56;101835.19;;;9.60;100.00
71774;BME280;59607;52.130;5.430;2023-02-17T05:14:24;101824.69;;;9.60;100.00
71774;BME280;59607;52.130;5.430;2023-02-17T05:16:54;101827.19;;;9.61;100.00
71774;BME280;59607;52.130;5.430;2023-02-17T05:19:30;101834.22;;;9.61;100.00
71774;BME280;59607;52.130;5.430;2023-02-17T05:21:57;101819.31;;;9.61;100.00
71774;BME280;59607;52.130;5.430;2023-02-17T05:24:26;101827.19;;;9.61;100.00
71774;BME280;59607;52.130;5.430;2023-02-17T05:26:57;101834.91;;;9.63;100.00
71774;BME280;59607;52.130;5.430;2023-02-17T05:29:26;101839.31;;;9.62;100.00
71774;BME280;59607;52.130;5.430;2023-02-17T05:31:58;101805.41;;;9.61;100.00
71774;BME280;59607;52.130;5.430;2023-02-17T05:34:25;101831.47;;;9.62;100.00
71774;BME280;59607;52.130;5.430;2023-02-17T05:36:54;101823.59;;;9.62;100.00
71774;BME280;59607;52.130;5.430;2023-02-17T05:39:22;101820.97;;;9.62;100.00
71774;BME280;59607;52.130;5.430;2023-02-17T05:41:48;101813.25;;;9.61;100.00
71774;BME280;59607;52.130;5.430;2023-02-17T05:44:16;101805.41;;;9.61;100.00
71774;BME280;59607;52.130;5.430;2023-02-17T05:46:46;101817.53;;;9.62;100.00
71774;BME280;59607;52.130;5.430;2023-02-17T05:49:13;101808.00;;;9.61;100.00
71774;BME280;59607;52.130;5.430;2023-02-17T05:51:39;101812.53;;;9.59;100.00
71774;BME280;59607;52.130;5.430;2023-02-17T05:54:10;101803.88;;;9.58;100.00
71774;BME280;59607;52.130;5.430;2023-02-17T05:56:36;101793.41;;;9.58;100.00
71774;BME280;59607;52.130;5.430;2023-02-17T05:59:03;101787.31;;;9.58;100.00
71774;BME280;59607;52.130;5.430;2023-02-17T06:01:44;101793.53;;;9.57;100.00
71774;BME280;59607;52.130;5.430;2023-02-17T06:04:10;101784.00;;;9.56;100.00
71774;BME280;59607;52.130;5.430;2023-02-17T06:06:36;101779.59;;;9.56;100.00
71774;BME280;59607;52.130;5.430;2023-02-17T06:09:03;101796.16;;;9.57;100.00
71774;BME280;59607;52.130;5.430;2023-02-17T06:11:29;101804.94;;;9.56;100.00
71774;BME280;59607;52.130;5.430;2023-02-17T06:13:56;101800.56;;;9.56;100.00
71774;BME280;59607;52.130;5.430;2023-02-17T06:16:22;101795.31;;;9.56;100.00
71774;BME280;59607;52.130;5.430;2023-02-17T06:18:49;101798.78;;;9.57;100.00
71774;BME280;59607;52.130;5.430;2023-02-17T06:21:15;101793.53;;;9.57;100.00
71774;BME280;59607;52.130;5.430;2023-02-17T06:23:47;101776.84;;;9.58;100.00
71774;BME280;59607;52.130;5.430;2023-02-17T06:26:14;101779.47;;;9.58;100.00
71774;BME280;59607;52.130;5.430;2023-02-17T06:28:40;101795.88;;;9.60;100.00
71774;BME280;59607;52.130;5.430;2023-02-17T06:31:12;101791.47;;;9.60;100.00
71774;BME280;59607;52.130;5.430;2023-02-17T06:33:38;101779.19;;;9.61;100.00
71774;BME280;59607;52.130;5.430;2023-02-17T06:36:15;101780.84;;;9.62;100.00
71774;BME280;59607;52.130;5.430;2023-02-17T06:38:41;101765.13;;;9.62;100.00
71774;BME280;59607;52.130;5.430;2023-02-17T06:41:12;101757.28;;;9.62;100.00
71774;BME280;59607;52.130;5.430;2023-02-17T06:43:45;101747.63;;;9.62;100.00
71774;BME280;59607;52.130;5.430;2023-02-17T06:46:14;101740.75;;;9.61;100.00
71774;BME280;59607;52.130;5.430;2023-02-17T06:48:40;101741.28;;;9.65;100.00
71774;BME280;59607;52.130;5.430;2023-02-17T06:51:07;101748.22;;;9.66;100.00
71774;BME280;59607;52.130;5.430;2023-02-17T06:53:33;101733.31;;;9.67;100.00
71774;BME280;59607;52.130;5.430;2023-02-17T06:56:09;101738.44;;;9.68;100.00
71774;BME280;59607;52.130;5.430;2023-02-17T06:58:38;101753.88;;;9.71;100.00
71774;BME280;59607;52.130;5.430;2023-02-17T07:01:15;101751.00;;;9.74;100.00
71774;BME280;59607;52.130;5.430;2023-02-17T07:03:44;101750.00;;;9.75;100.00
71774;BME280;59607;52.130;5.430;2023-02-17T07:06:15;101751.66;;;9.77;100.00
71774;BME280;59607;52.130;5.430;2023-02-17T07:08:44;101742.84;;;9.78;100.00
71774;BME280;59607;52.130;5.430;2023-02-17T07:11:15;101746.03;;;9.81;100.00
71774;BME280;59607;52.130;5.430;2023-02-17T07:13:42;101732.94;;;9.81;100.00
71774;BME280;59607;52.130;5.430;2023-02-17T07:16:24;101751.97;;;9.83;100.00
71774;BME280;59607;52.130;5.430;2023-02-17T07:18:58;101746.72;;;9.83;100.00
71774;BME280;59607;52.130;5.430;2023-02-17T07:21:24;101758.03;;;9.84;100.00
71774;BME280;59607;52.130;5.430;2023-02-17T07:24:01;101777.06;;;9.86;100.00
71774;BME280;59607;52.130;5.430;2023-02-17T07:26:28;101775.41;;;9.85;100.00
71774;BME280;59607;52.130;5.430;2023-02-17T07:29:05;101780.22;;;9.90;100.00
71774;BME280;59607;52.130;5.430;2023-02-17T07:31:36;101770.31;;;9.93;100.00
71774;BME280;59607;52.130;5.430;2023-02-17T07:34:07;101772.81;;;9.95;100.00
71774;BME280;59607;52.130;5.430;2023-02-17T07:36:34;101767.44;;;9.96;100.00
71774;BME280;59607;52.130;5.430;2023-02-17T07:39:03;101754.03;;;9.99;100.00
71774;BME280;59607;52.130;5.430;2023-02-17T07:41:30;101752.97;;;10.02;100.00
71774;BME280;59607;52.130;5.430;2023-02-17T07:43:59;101756.25;;;10.04;100.00
71774;BME280;59607;52.130;5.430;2023-02-17T07:46:29;101755.19;;;10.07;100.00
71774;BME280;59607;52.130;5.430;2023-02-17T07:48:57;101769.66;;;10.11;100.00
71774;BME280;59607;52.130;5.430;2023-02-17T07:51:24;101754.34;;;10.16;100.00
71774;BME280;59607;52.130;5.430;2023-02-17T07:53:53;101770.50;;;10.21;100.00
71774;BME280;59607;52.130;5.430;2023-02-17T07:56:24;101751.88;;;10.24;100.00
71774;BME280;59607;52.130;5.430;2023-02-17T07:58:51;101760.44;;;10.27;100.00
71774;BME280;59607;52.130;5.430;2023-02-17T08:01:23;101768.84;;;10.30;100.00
71774;BME280;59607;52.130;5.430;2023-02-17T08:03:56;101772.00;;;10.34;100.00
71774;BME280;59607;52.130;5.430;2023-02-17T08:06:26;101758.75;;;10.35;100.00
71774;BME280;59607;52.130;5.430;2023-02-17T08:08:53;101767.19;;;10.39;100.00
71774;BME280;59607;52.130;5.430;2023-02-17T08:11:41;101757.41;;;10.41;100.00
71774;BME280;59607;52.130;5.430;2023-02-17T08:14:31;101787.75;;;10.44;100.00
71774;BME280;59607;52.130;5.430;2023-02-17T08:16:58;101780.72;;;10.44;100.00
71774;BME280;59607;52.130;5.430;2023-02-17T08:19:32;101772.47;;;10.49;100.00
71774;BME280;59607;52.130;5.430;2023-02-17T08:22:13;101793.31;;;10.51;100.00
71774;BME280;59607;52.130;5.430;2023-02-17T08:24:39;101801.84;;;10.53;100.00
71774;BME280;59607;52.130;5.430;2023-02-17T08:27:08;101790.28;;;10.55;100.00
71774;BME280;59607;52.130;5.430;2023-02-17T08:29:37;101785.72;;;10.57;100.00
71774;BME280;59607;52.130;5.430;2023-02-17T08:32:03;101788.06;;;10.60;100.00
71774;BME280;59607;52.130;5.430;2023-02-17T08:34:30;101784.19;;;10.65;100.00
71774;BME280;59607;52.130;5.430;2023-02-17T08:37:05;101798.84;;;10.67;100.00
71774;BME280;59607;52.130;5.430;2023-02-17T08:39:33;101809.06;;;10.70;100.00
71774;BME280;59607;52.130;5.430;2023-02-17T08:42:17;101792.19;;;10.73;100.00
71774;BME280;59607;52.130;5.430;2023-02-17T08:44:46;101803.38;;;10.75;100.00
71774;BME280;59607;52.130;5.430;2023-02-17T08:47:13;101819.78;;;10.77;100.00
71774;BME280;59607;52.130;5.430;2023-02-17T08:49:39;101805.88;;;10.77;100.00
71774;BME280;59607;52.130;5.430;2023-02-17T08:52:12;101807.38;;;10.79;100.00
71774;BME280;59607;52.130;5.430;2023-02-17T08:54:38;101830.84;;;10.81;100.00
71774;BME280;59607;52.130;5.430;2023-02-17T08:57:08;101835.97;;;10.82;100.00
71774;BME280;59607;52.130;5.430;2023-02-17T08:59:34;101822.97;;;10.81;100.00
71774;BME280;59607;52.130;5.430;2023-02-17T09:02:01;101806.38;;;10.80;100.00
71774;BME280;59607;52.130;5.430;2023-02-17T09:04:28;101829.91;;;10.82;100.00
71774;BME280;59607;52.130;5.430;2023-02-17T09:07:00;101832.53;;;10.82;100.00
71774;BME280;59607;52.130;5.430;2023-02-17T09:09:27;101825.31;;;10.84;100.00
71774;BME280;59607;52.130;5.430;2023-02-17T09:11:57;101822.41;;;10.87;100.00
71774;BME280;59607;52.130;5.430;2023-02-17T09:14:32;101833.59;;;10.89;100.00
71774;BME280;59607;52.130;5.430;2023-02-17T09:17:01;101821.31;;;10.90;100.00
71774;BME280;59607;52.130;5.430;2023-02-17T09:19:31;101840.91;;;10.95;100.00
71774;BME280;59607;52.130;5.430;2023-02-17T09:22:00;101851.97;;;10.99;100.00
71774;BME280;59607;52.130;5.430;2023-02-17T09:24:55;101818.69;;;11.00;100.00
71774;BME280;59607;52.130;5.430;2023-02-17T09:27:34;101835.94;;;11.02;100.00
71774;BME280;59607;52.130;5.430;2023-02-17T09:30:07;101826.28;;;11.03;100.00
71774;BME280;59607;52.130;5.430;2023-02-17T09:32:33;101816.44;;;11.05;100.00
71774;BME280;59607;52.130;5.430;2023-02-17T09:35:00;101808.41;;;11.06;100.00
71774;BME280;59607;52.130;5.430;2023-02-17T09:37:31;101820.59;;;11.07;100.00
71774;BME280;59607;52.130;5.430;2023-02-17T09:40:02;101820.44;;;11.09;100.00
71774;BME280;59607;52.130;5.430;2023-02-17T09:42:35;101814.78;;;11.14;100.00
71774;BME280;59607;52.130;5.430;2023-02-17T09:45:18;101821.81;;;11.13;100.00
71774;BME280;59607;52.130;5.430;2023-02-17T09:48:03;101821.16;;;11.11;100.00
71774;BME280;59607;52.130;5.430;2023-02-17T09:50:53;101816.97;;;11.18;100.00
71774;BME280;59607;52.130;5.430;2023-02-17T09:53:47;101801.31;;;11.37;100.00
71774;BME280;59607;52.130;5.430;2023-02-17T09:56:23;101807.34;;;11.37;100.00
71774;BME280;59607;52.130;5.430;2023-02-17T09:58:58;101804.47;;;11.40;100.00
71774;BME280;59607;52.130;5.430;2023-02-17T10:01:46;101797.41;;;11.41;100.00
71774;BME280;59607;52.130;5.430;2023-02-17T10:04:45;101822.97;;;11.39;100.00
71774;BME280;59607;52.130;5.430;2023-02-17T10:07:27;101814.28;;;11.38;100.00
71774;BME280;59607;52.130;5.430;2023-02-17T10:10:10;101818.13;;;11.44;100.00
71774;BME280;59607;52.130;5.430;2023-02-17T10:12:48;101814.41;;;11.46;100.00
71774;BME280;59607;52.130;5.430;2023-02-17T10:18:45;101825.34;;;11.42;100.00
71774;BME280;59607;52.130;5.430;2023-02-17T10:21:25;101835.44;;;11.37;100.00
71774;BME280;59607;52.130;5.430;2023-02-17T10:23:59;101843.03;;;11.40;100.00
71774;BME280;59607;52.130;5.430;2023-02-17T10:29:33;101844.13;;;11.37;100.00
71774;BME280;59607;52.130;5.430;2023-02-17T10:32:20;101845.94;;;11.37;100.00
71774;BME280;59607;52.130;5.430;2023-02-17T10:35:13;101858.41;;;11.34;100.00
71774;BME280;59607;52.130;5.430;2023-02-17T10:37:54;101845.69;;;11.30;100.00
71774;BME280;59607;52.130;5.430;2023-02-17T10:40:48;101827.59;;;11.27;100.00
71774;BME280;59607;52.130;5.430;2023-02-17T10:43:25;101837.41;;;11.25;100.00
71774;BME280;59607;52.130;5.430;2023-02-17T10:45:55;101805.06;;;11.24;100.00
71774;BME280;59607;52.130;5.430;2023-02-17T10:48:27;101835.75;;;11.23;100.00
71774;BME280;59607;52.130;5.430;2023-02-17T10:50:59;101848.06;;;11.23;100.00
71774;BME280;59607;52.130;5.430;2023-02-17T10:53:50;101871.53;;;11.25;100.00
71774;BME280;59607;52.130;5.430;2023-02-17T10:56:26;101859.53;;;11.22;100.00
71774;BME280;59607;52.130;5.430;2023-02-17T10:59:02;101850.81;;;11.21;100.00
71774;BME280;59607;52.130;5.430;2023-02-17T11:01:33;101855.66;;;11.26;100.00
71774;BME280;59607;52.130;5.430;2023-02-17T11:04:13;101865.34;;;11.26;100.00
71774;BME280;59607;52.130;5.430;2023-02-17T11:06:51;101848.19;;;11.31;100.00
71774;BME280;59607;52.130;5.430;2023-02-17T11:09:28;101860.59;;;11.39;100.00
71774;BME280;59607;52.130;5.430;2023-02-17T11:12:02;101860.16;;;11.44;100.00
71774;BME280;59607;52.130;5.430;2023-02-17T11:14:35;101844.81;;;11.49;100.00
71774;BME280;59607;52.130;5.430;2023-02-17T11:17:37;101868.88;;;11.44;100.00
71774;BME280;59607;52.130;5.430;2023-02-17T11:22:43;101881.75;;;11.38;100.00
71774;BME280;59607;52.130;5.430;2023-02-17T11:25:30;101872.66;;;11.32;100.00
71774;BME280;59607;52.130;5.430;2023-02-17T11:28:10;101888.69;;;11.29;100.00
71774;BME280;59607;52.130;5.430;2023-02-17T11:30:49;101889.94;;;11.25;100.00
71774;BME280;59607;52.130;5.430;2023-02-17T11:33:29;101889.38;;;11.21;100.00
71774;BME280;59607;52.130;5.430;2023-02-17T11:36:26;101885.78;;;11.22;100.00
71774;BME280;59607;52.130;5.430;2023-02-17T11:38:54;101890.22;;;11.21;100.00
71774;BME280;59607;52.130;5.430;2023-02-17T11:41:37;101893.81;;;11.20;100.00
71774;BME280;59607;52.130;5.430;2023-02-17T11:44:04;101904.47;;;11.19;100.00
71774;BME280;59607;52.130;5.430;2023-02-17T11:46:46;101886.88;;;11.19;100.00
71774;BME280;59607;52.130;5.430;2023-02-17T11:55:19;101902.78;;;11.18;100.00
71774;BME280;59607;52.130;5.430;2023-02-17T12:00:44;101910.00;;;11.16;100.00
71774;BME280;59607;52.130;5.430;2023-02-17T12:03:37;101912.34;;;11.09;100.00
71774;BME280;59607;52.130;5.430;2023-02-17T12:09:19;101930.31;;;11.04;100.00
71774;BME280;59607;52.130;5.430;2023-02-17T12:14:42;101932.50;;;10.98;100.00
71774;BME280;59607;52.130;5.430;2023-02-17T12:23:48;101940.25;;;10.90;100.00
71774;BME280;59607;52.130;5.430;2023-02-17T12:35:44;101943.56;;;10.92;100.00
71774;BME280;59607;52.130;5.430;2023-02-17T12:38:23;101966.34;;;10.92;100.00
71774;BME280;59607;52.130;5.430;2023-02-17T12:40:57;101964.69;;;10.91;100.00
71774;BME280;59607;52.130;5.430;2023-02-17T12:43:45;101961.81;;;10.94;100.00
71774;BME280;59607;52.130;5.430;2023-02-17T12:46:32;101961.81;;;10.94;100.00
71774;BME280;59607;52.130;5.430;2023-02-17T12:52:27;101971.31;;;10.95;100.00
71774;BME280;59607;52.130;5.430;2023-02-17T12:55:02;101969.94;;;10.91;100.00
71774;BME280;59607;52.130;5.430;2023-02-17T12:58:02;101978.81;;;10.90;100.00
71774;BME280;59607;52.130;5.430;2023-02-17T13:00:40;101984.06;;;10.90;100.00
71774;BME280;59607;52.130;5.430;2023-02-17T13:03:14;101991.94;;;10.90;100.00
71774;BME280;59607;52.130;5.430;2023-02-17T13:06:07;101974.78;;;10.85;100.00
71774;BME280;59607;52.130;5.430;2023-02-17T13:09:04;101977.56;;;10.94;100.00
71774;BME280;59607;52.130;5.430;2023-02-17T13:11:45;101965.94;;;11.06;100.00
71774;BME280;59607;52.130;5.430;2023-02-17T13:14:28;101960.56;;;11.08;100.00
71774;BME280;59607;52.130;5.430;2023-02-17T13:17:00;101956.69;;;11.12;100.00
71774;BME280;59607;52.130;5.430;2023-02-17T13:19:29;101969.00;;;11.21;100.00
71774;BME280;59607;52.130;5.430;2023-02-17T13:22:03;101961.81;;;11.33;100.00
71774;BME280;59607;52.130;5.430;2023-02-17T13:24:33;101953.66;;;11.37;100.00
71774;BME280;59607;52.130;5.430;2023-02-17T13:27:10;101983.63;;;11.44;100.00
71774;BME280;59607;52.130;5.430;2023-02-17T13:29:42;101969.25;;;11.48;100.00
71774;BME280;59607;52.130;5.430;2023-02-17T13:32:31;101964.28;;;11.55;100.00
71774;BME280;59607;52.130;5.430;2023-02-17T13:35:04;101963.28;;;11.56;100.00
71774;BME280;59607;52.130;5.430;2023-02-17T13:42:55;101971.31;;;11.54;100.00
71774;BME280;59607;52.130;5.430;2023-02-17T13:50:53;101958.03;;;11.66;100.00
71774;BME280;59607;52.130;5.430;2023-02-17T13:56:11;101955.25;;;11.67;100.00
71774;BME280;59607;52.130;5.430;2023-02-17T13:58:48;101961.31;;;11.68;100.00
71774;BME280;59607;52.130;5.430;2023-02-17T14:01:17;101946.66;;;11.65;100.00
71774;BME280;59607;52.130;5.430;2023-02-17T14:03:50;101961.88;;;11.62;100.00
71774;BME280;59607;52.130;5.430;2023-02-17T14:08:53;101961.47;;;11.66;100.00
71774;BME280;59607;52.130;5.430;2023-02-17T14:11:22;101959.66;;;11.67;100.00
71774;BME280;59607;52.130;5.430;2023-02-17T14:13:54;101956.75;;;11.70;100.00
71774;BME280;59607;52.130;5.430;2023-02-17T14:16:30;101967.53;;;11.77;100.00
71774;BME280;59607;52.130;5.430;2023-02-17T14:21:43;101973.97;;;11.92;100.00
71774;BME280;59607;52.130;5.430;2023-02-17T14:24:33;101962.72;;;12.10;100.00
71774;BME280;59607;52.130;5.430;2023-02-17T14:27:05;101970.78;;;12.08;100.00
71774;BME280;59607;52.130;5.430;2023-02-17T14:29:44;101949.19;;;12.05;100.00
71774;BME280;59607;52.130;5.430;2023-02-17T14:37:41;101950.69;;;12.07;100.00
71774;BME280;59607;52.130;5.430;2023-02-17T14:40:19;101977.41;;;12.03;100.00
71774;BME280;59607;52.130;5.430;2023-02-17T14:42:50;101993.19;;;12.03;100.00
71774;BME280;59607;52.130;5.430;2023-02-17T14:45:22;101997.19;;;12.07;100.00
71774;BME280;59607;52.130;5.430;2023-02-17T14:47:51;101973.00;;;12.03;100.00
71774;BME280;59607;52.130;5.430;2023-02-17T14:50:17;101973.94;;;12.02;100.00
71774;BME280;59607;52.130;5.430;2023-02-17T14:52:49;101987.09;;;12.02;100.00